createdAt,value
2018-12-29T00:00:40.903Z,15.07
2018-12-29T00:03:09.493Z,17.83
2018-12-29T00:05:38.076Z,16.00
2018-12-29T00:08:06.627Z,18.83
2018-12-29T00:10:35.047Z,20.00
2018-12-29T00:13:03.879Z,16.33
2018-12-29T00:15:32.444Z,22.43
2018-12-29T00:18:01.002Z,18.57
2018-12-29T00:20:29.550Z,23.67
2018-12-29T00:22:57.937Z,22.10
2018-12-29T00:25:27.003Z,21.17
2018-12-29T00:27:55.660Z,24.70
2018-12-29T00:30:24.203Z,19.40
2018-12-29T00:32:52.738Z,20.77
2018-12-29T00:35:21.223Z,22.23
2018-12-29T00:37:50.002Z,20.90
2018-12-29T00:40:18.875Z,20.07
2018-12-29T00:42:47.444Z,20.97
2018-12-29T00:45:15.907Z,20.33
2018-12-29T00:47:44.364Z,21.57
2018-12-29T00:50:12.893Z,20.43
2018-12-29T00:52:41.337Z,18.20
2018-12-29T00:55:09.951Z,21.60
2018-12-29T00:57:38.538Z,23.93
2018-12-29T01:00:07.642Z,18.93
2018-12-29T01:02:36.044Z,19.00
2018-12-29T01:05:04.565Z,21.63
2018-12-29T01:07:32.965Z,18.73
2018-12-29T01:10:01.520Z,20.60
2018-12-29T01:12:30.036Z,25.43
2018-12-29T01:14:58.599Z,18.73
2018-12-29T01:17:27.202Z,20.37
2018-12-29T01:19:55.823Z,23.53
2018-12-29T01:22:24.302Z,21.27
2018-12-29T01:24:52.802Z,19.97
2018-12-29T01:27:21.375Z,22.43
2018-12-29T01:29:49.896Z,20.23
2018-12-29T01:32:18.325Z,17.30
2018-12-29T01:34:46.804Z,20.13
2018-12-29T01:37:15.284Z,22.70
2018-12-29T01:39:43.765Z,19.63
2018-12-29T01:42:12.436Z,23.53
2018-12-29T01:44:40.921Z,18.67
2018-12-29T01:47:09.492Z,25.77
2018-12-29T01:49:38.071Z,22.23
2018-12-29T01:52:06.475Z,21.30
2018-12-29T01:54:35.084Z,18.07
2018-12-29T01:57:03.686Z,20.60
2018-12-29T01:59:32.312Z,19.83
2018-12-29T02:02:00.855Z,20.13
2018-12-29T02:04:29.344Z,20.97
2018-12-29T02:06:57.880Z,21.47
2018-12-29T02:09:26.355Z,19.33
2018-12-29T02:11:54.903Z,18.23
2018-12-29T02:14:23.376Z,16.00
2018-12-29T02:16:51.883Z,17.23
2018-12-29T02:19:20.336Z,17.07
2018-12-29T02:21:48.835Z,15.63
2018-12-29T02:24:17.320Z,17.23
2018-12-29T02:26:45.839Z,19.00
2018-12-29T02:29:14.368Z,15.30
2018-12-29T02:31:42.921Z,12.30
2018-12-29T02:34:11.570Z,15.20
2018-12-29T02:36:40.062Z,12.77
2018-12-29T02:39:08.534Z,16.07
2018-12-29T02:41:37.060Z,13.10
2018-12-29T02:44:05.567Z,13.83
2018-12-29T02:46:34.250Z,12.47
2018-12-29T02:49:02.861Z,14.03
2018-12-29T02:51:31.373Z,9.50
2018-12-29T02:53:59.857Z,16.07
2018-12-29T02:56:28.364Z,15.27
2018-12-29T02:58:56.759Z,11.20
2018-12-29T03:01:25.302Z,9.47
2018-12-29T03:03:53.857Z,12.90
2018-12-29T03:06:22.394Z,13.77
2018-12-29T03:08:51.032Z,11.77
2018-12-29T03:11:19.538Z,13.30
2018-12-29T03:13:48.084Z,13.30
2018-12-29T03:16:16.543Z,10.70
2018-12-29T03:18:45.040Z,11.97
2018-12-29T03:21:13.955Z,12.53
2018-12-29T03:23:42.544Z,9.73
2018-12-29T03:26:11.209Z,12.50
2018-12-29T03:28:39.755Z,12.07
2018-12-29T03:31:08.329Z,12.03
2018-12-29T03:33:36.974Z,13.13
2018-12-29T03:36:05.373Z,14.63
2018-12-29T03:38:33.864Z,11.30
2018-12-29T03:41:02.439Z,13.27
2018-12-29T03:43:30.910Z,14.67
2018-12-29T03:45:59.351Z,13.23
2018-12-29T03:48:27.971Z,13.20
2018-12-29T03:50:56.455Z,11.40
2018-12-29T03:53:25.006Z,12.00
2018-12-29T03:55:53.817Z,16.63
2018-12-29T03:58:22.310Z,14.50
2018-12-29T04:00:50.784Z,12.93
2018-12-29T04:03:19.249Z,12.30
2018-12-29T04:05:47.745Z,13.07
2018-12-29T04:08:16.256Z,14.17
2018-12-29T04:10:44.928Z,15.40
2018-12-29T04:13:13.595Z,19.20
2018-12-29T04:15:42.036Z,12.27
2018-12-29T04:18:10.593Z,15.07
2018-12-29T04:20:39.089Z,12.80
2018-12-29T04:23:07.632Z,14.33
2018-12-29T04:25:36.210Z,11.67
2018-12-29T04:28:04.701Z,13.07
2018-12-29T04:30:33.193Z,13.97
2018-12-29T04:33:01.664Z,12.50
2018-12-29T04:35:30.106Z,12.70
2018-12-29T04:37:58.591Z,13.60
2018-12-29T04:40:27.030Z,11.43
2018-12-29T04:42:55.491Z,13.53
2018-12-29T04:45:23.938Z,11.83
2018-12-29T04:47:52.543Z,15.90
2018-12-29T04:50:20.957Z,13.80
2018-12-29T04:52:49.552Z,11.87
2018-12-29T04:55:18.092Z,15.73
2018-12-29T04:57:46.609Z,16.80
2018-12-29T05:00:15.054Z,15.57
2018-12-29T05:02:43.548Z,14.23
2018-12-29T05:05:12.104Z,16.23
2018-12-29T05:07:40.557Z,15.13
2018-12-29T05:10:09.116Z,15.80
2018-12-29T05:12:37.548Z,18.63
2018-12-29T05:15:05.987Z,17.23
2018-12-29T05:17:34.576Z,18.90
2018-12-29T05:20:03.099Z,23.33
2018-12-29T05:22:31.588Z,16.17
2018-12-29T05:25:00.178Z,20.90
2018-12-29T05:27:28.735Z,24.27
2018-12-29T05:29:57.183Z,26.33
2018-12-29T05:32:25.726Z,22.00
2018-12-29T05:34:54.214Z,22.10
2018-12-29T05:37:22.793Z,24.93
2018-12-29T05:39:51.311Z,23.00
2018-12-29T05:42:19.736Z,25.10
2018-12-29T05:44:48.246Z,23.10
2018-12-29T05:47:16.782Z,23.50
2018-12-29T05:49:45.305Z,27.10
2018-12-29T05:52:13.789Z,25.17
2018-12-29T05:54:42.284Z,24.43
2018-12-29T05:57:10.709Z,28.87
2018-12-29T05:59:39.284Z,27.83
2018-12-29T06:02:07.808Z,26.27
2018-12-29T06:04:36.368Z,29.27
2018-12-29T06:07:04.832Z,26.47
2018-12-29T06:09:33.406Z,31.37
2018-12-29T06:12:01.898Z,29.87
2018-12-29T06:14:30.407Z,29.40
2018-12-29T06:16:58.989Z,27.47
2018-12-29T06:19:27.462Z,29.67
2018-12-29T06:21:55.900Z,29.63
2018-12-29T06:24:24.425Z,29.83
2018-12-29T06:26:52.903Z,29.83
2018-12-29T06:29:21.337Z,28.77
2018-12-29T06:31:49.894Z,34.33
2018-12-29T06:34:18.287Z,35.03
2018-12-29T06:36:46.845Z,36.73
2018-12-29T06:39:15.405Z,40.00
2018-12-29T06:41:44.011Z,33.53
2018-12-29T06:44:12.528Z,39.60
2018-12-29T06:46:41.108Z,36.07
2018-12-29T06:49:09.570Z,35.40
2018-12-29T06:51:39.190Z,36.70
2018-12-29T06:54:07.791Z,38.93
2018-12-29T06:56:36.396Z,35.27
2018-12-29T06:59:04.913Z,40.87
2018-12-29T07:01:33.491Z,40.17
2018-12-29T07:04:01.922Z,41.37
2018-12-29T07:06:30.423Z,39.67
2018-12-29T07:08:58.919Z,45.43
2018-12-29T07:11:27.378Z,42.83
2018-12-29T07:13:55.855Z,40.53
2018-12-29T07:16:24.382Z,47.17
2018-12-29T07:18:52.936Z,40.53
2018-12-29T07:21:21.534Z,42.90
2018-12-29T07:23:50.072Z,41.87
2018-12-29T07:26:18.661Z,43.97
2018-12-29T07:28:47.201Z,41.53
2018-12-29T07:31:15.737Z,46.43
2018-12-29T07:33:44.319Z,40.30
2018-12-29T07:36:12.802Z,40.00
2018-12-29T07:38:41.521Z,41.50
2018-12-29T07:41:09.994Z,39.43
2018-12-29T07:43:38.383Z,40.37
2018-12-29T07:46:06.998Z,44.40
2018-12-29T07:48:35.795Z,42.50
2018-12-29T07:51:04.213Z,43.87
2018-12-29T07:53:32.892Z,47.87
2018-12-29T07:56:01.651Z,40.60
2018-12-29T07:58:30.142Z,40.17
2018-12-29T08:00:58.919Z,38.17
2018-12-29T08:03:27.376Z,38.63
2018-12-29T08:05:55.952Z,41.53
2018-12-29T08:08:24.758Z,35.30
2018-12-29T08:10:53.443Z,38.37
2018-12-29T08:13:21.945Z,40.30
2018-12-29T08:15:50.577Z,39.10
2018-12-29T08:18:19.167Z,38.20
2018-12-29T08:20:47.596Z,37.07
2018-12-29T08:23:16.312Z,37.00
2018-12-29T08:25:45.052Z,36.20
2018-12-29T08:28:13.955Z,36.90
2018-12-29T08:30:42.530Z,31.87
2018-12-29T08:33:11.067Z,33.50
2018-12-29T08:35:39.613Z,38.90
2018-12-29T08:38:08.179Z,35.07
2018-12-29T08:40:36.602Z,34.90
2018-12-29T08:43:05.070Z,32.50
2018-12-29T08:45:33.666Z,34.93
2018-12-29T08:48:02.116Z,33.00
2018-12-29T08:50:30.607Z,32.17
2018-12-29T08:52:59.115Z,32.07
2018-12-29T08:55:27.661Z,27.43
2018-12-29T08:57:56.204Z,27.63
2018-12-29T09:00:24.777Z,26.83
2018-12-29T09:02:53.234Z,26.60
2018-12-29T09:05:21.713Z,26.83
2018-12-29T09:07:50.275Z,27.37
2018-12-29T09:10:18.740Z,26.57
2018-12-29T09:12:47.356Z,28.30
2018-12-29T09:15:15.881Z,28.50
2018-12-29T09:17:44.365Z,27.50
2018-12-29T09:20:12.922Z,28.73
2018-12-29T09:22:41.462Z,28.60
2018-12-29T09:25:10.004Z,24.97
2018-12-29T09:27:38.466Z,23.67
2018-12-29T09:30:07.617Z,21.77
2018-12-29T09:32:36.015Z,22.63
2018-12-29T09:35:05.130Z,24.40
2018-12-29T09:37:33.581Z,22.87
2018-12-29T09:40:02.228Z,25.40
2018-12-29T09:42:30.822Z,23.50
2018-12-29T09:44:59.429Z,24.83
2018-12-29T09:47:27.916Z,25.53
2018-12-29T09:49:56.362Z,28.13
2018-12-29T09:52:25.017Z,25.67
2018-12-29T09:54:53.553Z,31.83
2018-12-29T09:57:22.000Z,26.27
2018-12-29T09:59:50.485Z,25.73
2018-12-29T10:02:18.967Z,26.53
2018-12-29T10:04:47.553Z,24.63
2018-12-29T10:07:16.053Z,29.07
2018-12-29T10:09:44.534Z,35.40
2018-12-29T10:12:13.044Z,27.53
2018-12-29T10:14:41.575Z,24.73
2018-12-29T10:17:09.991Z,29.23
2018-12-29T10:19:38.432Z,24.20
2018-12-29T10:22:06.930Z,24.27
2018-12-29T10:24:35.444Z,23.90
2018-12-29T10:27:04.051Z,27.57
2018-12-29T10:29:32.646Z,31.90
2018-12-29T10:32:01.370Z,32.03
2018-12-29T10:34:30.026Z,29.00
2018-12-29T10:36:58.627Z,32.43
2018-12-29T10:39:27.102Z,34.10
2018-12-29T10:41:55.635Z,31.40
2018-12-29T10:44:24.263Z,28.07
2018-12-29T10:46:52.956Z,30.80
2018-12-29T10:49:21.489Z,30.13
2018-12-29T10:51:49.997Z,29.53
2018-12-29T10:54:18.418Z,25.57
2018-12-29T10:56:46.898Z,27.50
2018-12-29T10:59:15.569Z,25.47
2018-12-29T11:01:44.133Z,26.20
2018-12-29T11:04:12.656Z,26.23
2018-12-29T11:06:41.263Z,27.37
2018-12-29T11:09:09.888Z,26.17
2018-12-29T11:11:38.383Z,26.73
2018-12-29T11:14:06.990Z,27.00
2018-12-29T11:16:35.571Z,30.20
2018-12-29T11:19:04.029Z,31.47
2018-12-29T11:21:32.690Z,31.67
2018-12-29T11:24:01.287Z,25.43
2018-12-29T11:26:29.715Z,26.60
2018-12-29T11:28:58.232Z,26.63
2018-12-29T11:31:26.688Z,26.20
2018-12-29T11:33:55.162Z,28.00
2018-12-29T11:36:23.641Z,26.03
2018-12-29T11:38:52.117Z,27.63
2018-12-29T11:41:20.642Z,23.90
2018-12-29T11:43:49.127Z,28.20
2018-12-29T11:46:17.642Z,27.57
2018-12-29T11:48:46.213Z,26.00
2018-12-29T11:51:15.069Z,25.33
2018-12-29T11:53:43.500Z,26.93
2018-12-29T11:56:12.031Z,27.43
2018-12-29T11:58:40.681Z,24.63
2018-12-29T12:01:09.166Z,27.93
2018-12-29T12:03:37.934Z,29.23
2018-12-29T12:06:06.416Z,27.40
2018-12-29T12:08:35.008Z,30.90
2018-12-29T12:11:03.498Z,27.50
2018-12-29T12:13:32.059Z,29.53
2018-12-29T12:16:00.950Z,27.97
2018-12-29T12:18:29.455Z,31.50
2018-12-29T12:20:57.956Z,34.53
2018-12-29T12:23:26.534Z,35.77
2018-12-29T12:25:55.040Z,35.23
2018-12-29T12:28:23.599Z,34.40
2018-12-29T12:30:52.183Z,32.23
2018-12-29T12:33:20.843Z,37.00
2018-12-29T12:35:49.396Z,30.43
2018-12-29T12:38:18.292Z,32.17
2018-12-29T12:40:46.804Z,31.27
2018-12-29T12:43:15.788Z,37.07
2018-12-29T12:45:44.797Z,33.80
2018-12-29T12:48:13.406Z,36.13
2018-12-29T12:50:42.204Z,31.60
2018-12-29T12:53:10.803Z,37.13
2018-12-29T12:55:39.454Z,39.10
2018-12-29T12:58:08.338Z,41.70
2018-12-29T13:00:37.121Z,33.13
2018-12-29T13:03:05.944Z,34.97
2018-12-29T13:05:35.487Z,34.23
2018-12-29T13:08:04.455Z,32.97
2018-12-29T13:10:33.021Z,29.00
2018-12-29T13:13:01.523Z,28.93
2018-12-29T13:15:30.084Z,27.83
2018-12-29T13:17:58.580Z,33.40
2018-12-29T13:20:27.422Z,31.17
2018-12-29T13:22:55.899Z,32.33
2018-12-29T13:25:26.045Z,28.20
2018-12-29T13:27:54.819Z,29.00
2018-12-29T13:30:23.479Z,26.47
2018-12-29T13:32:52.419Z,25.03
2018-12-29T13:35:21.313Z,24.97
2018-12-29T13:37:49.771Z,24.30
2018-12-29T13:40:18.300Z,25.77
2018-12-29T13:42:46.951Z,24.70
2018-12-29T13:45:15.726Z,21.70
2018-12-29T13:47:44.200Z,21.13
2018-12-29T13:50:12.675Z,24.60
2018-12-29T13:52:41.130Z,24.90
2018-12-29T13:55:10.093Z,23.10
2018-12-29T13:57:38.685Z,19.03
2018-12-29T14:00:07.682Z,24.40
2018-12-29T14:02:36.356Z,22.13
2018-12-29T14:05:04.971Z,22.53
2018-12-29T14:07:33.516Z,21.50
2018-12-29T14:10:02.003Z,22.20
2018-12-29T14:12:33.685Z,22.30
2018-12-29T14:15:02.156Z,24.77
2018-12-29T14:17:30.693Z,23.00
2018-12-29T14:19:59.437Z,26.23
2018-12-29T14:22:27.997Z,20.77
2018-12-29T14:24:56.828Z,22.20
2018-12-29T14:27:25.336Z,22.60
2018-12-29T14:29:53.934Z,21.93
2018-12-29T14:32:22.906Z,24.33
2018-12-29T14:34:51.417Z,20.80
2018-12-29T14:37:19.880Z,19.73
2018-12-29T14:39:48.422Z,23.37
2018-12-29T14:42:17.015Z,25.87
2018-12-29T14:44:45.925Z,28.03
2018-12-29T14:47:14.350Z,28.93
2018-12-29T14:49:42.925Z,27.93
2018-12-29T14:52:11.396Z,25.27
2018-12-29T14:54:39.921Z,26.10
2018-12-29T14:57:10.017Z,29.60
2018-12-29T14:59:38.816Z,27.73
2018-12-29T15:02:07.364Z,31.43
2018-12-29T15:04:35.880Z,28.13
2018-12-29T15:07:04.358Z,33.73
2018-12-29T15:09:32.802Z,33.43
2018-12-29T15:12:01.483Z,29.20
2018-12-29T15:14:30.125Z,29.80
2018-12-29T15:16:58.593Z,33.13
2018-12-29T15:19:27.168Z,31.63
2018-12-29T15:21:55.629Z,36.60
2018-12-29T15:24:24.224Z,38.17
2018-12-29T15:26:52.861Z,37.53
2018-12-29T15:29:21.641Z,29.33
2018-12-29T15:31:50.159Z,32.17
2018-12-29T15:34:18.686Z,26.33
2018-12-29T15:36:47.185Z,29.47
2018-12-29T15:39:15.759Z,32.80
2018-12-29T15:41:44.463Z,25.47
2018-12-29T15:44:12.930Z,28.63
2018-12-29T15:46:41.383Z,25.33
2018-12-29T15:49:09.981Z,25.47
2018-12-29T15:51:38.564Z,26.43
2018-12-29T15:54:07.061Z,24.67
2018-12-29T15:56:36.086Z,25.73
2018-12-29T15:59:04.608Z,28.40
2018-12-29T16:01:33.125Z,31.73
2018-12-29T16:04:01.621Z,28.17
2018-12-29T16:06:30.192Z,29.23
2018-12-29T16:08:58.691Z,29.10
2018-12-29T16:11:27.669Z,25.63
2018-12-29T16:13:56.306Z,31.63
2018-12-29T16:16:24.815Z,30.33
2018-12-29T16:18:58.823Z,33.50
2018-12-29T16:21:23.506Z,27.70
2018-12-29T16:23:52.027Z,33.23
2018-12-29T16:26:20.528Z,33.60
2018-12-29T16:28:49.135Z,33.53
2018-12-29T16:31:17.617Z,36.30
2018-12-29T16:33:53.647Z,34.90
2018-12-29T16:36:16.329Z,35.77
2018-12-29T16:38:44.975Z,37.63
2018-12-29T16:41:13.571Z,36.27
2018-12-29T16:43:42.091Z,34.97
2018-12-29T16:46:10.534Z,36.60
2018-12-29T16:48:39.194Z,35.03
2018-12-29T16:51:07.793Z,34.40
2018-12-29T16:53:36.444Z,40.17
2018-12-29T16:56:04.916Z,39.63
2018-12-29T16:58:33.409Z,43.70
2018-12-29T17:01:02.162Z,38.53
2018-12-29T17:03:30.697Z,36.63
2018-12-29T17:05:59.156Z,38.60
2018-12-29T17:08:27.681Z,36.87
2018-12-29T17:10:56.302Z,32.37
2018-12-29T17:13:24.741Z,32.47
2018-12-29T17:15:53.465Z,34.83
2018-12-29T17:18:22.773Z,34.33
2018-12-29T17:20:51.521Z,28.23
2018-12-29T17:23:19.995Z,32.40
2018-12-29T17:25:48.712Z,31.90
2018-12-29T17:28:17.339Z,33.87
2018-12-29T17:30:45.937Z,29.70
2018-12-29T17:33:14.564Z,34.47
2018-12-29T17:35:43.028Z,40.70
2018-12-29T17:38:12.087Z,38.57
2018-12-29T17:40:40.873Z,48.73
2018-12-29T17:43:09.391Z,40.60
2018-12-29T17:45:37.995Z,44.77
2018-12-29T17:48:06.813Z,33.30
2018-12-29T17:50:35.608Z,38.97
2018-12-29T17:53:04.193Z,39.37
2018-12-29T17:55:32.709Z,33.50
2018-12-29T17:58:01.256Z,36.33
2018-12-29T18:00:30.388Z,31.93
2018-12-29T18:02:59.094Z,38.07
2018-12-29T18:05:27.822Z,34.90
2018-12-29T18:07:56.392Z,35.13
2018-12-29T18:10:25.187Z,34.47
2018-12-29T18:12:54.929Z,33.60
2018-12-29T18:15:23.638Z,35.03
2018-12-29T18:17:52.144Z,36.20
2018-12-29T18:20:20.675Z,36.10
2018-12-29T18:22:49.455Z,42.27
2018-12-29T18:25:18.053Z,38.67
2018-12-29T18:27:46.945Z,39.43
2018-12-29T18:30:15.460Z,33.93
2018-12-29T18:32:44.035Z,38.33
2018-12-29T18:35:12.660Z,46.60
2018-12-29T18:37:41.101Z,45.60
2018-12-29T18:40:09.582Z,42.83
2018-12-29T18:42:38.131Z,44.27
2018-12-29T18:45:06.760Z,46.10
2018-12-29T18:47:35.381Z,43.40
2018-12-29T18:50:05.230Z,40.27
2018-12-29T18:52:33.839Z,37.57
2018-12-29T18:55:04.358Z,44.07
2018-12-29T18:57:32.870Z,51.43
2018-12-29T19:00:01.375Z,57.87
2018-12-29T19:02:30.313Z,63.03
2018-12-29T19:04:58.920Z,59.97
2018-12-29T19:07:27.668Z,60.43
2018-12-29T19:09:56.250Z,56.27
2018-12-29T19:12:24.692Z,57.17
2018-12-29T19:14:53.308Z,50.90
2018-12-29T19:17:22.196Z,46.37
2018-12-29T19:19:51.342Z,46.13
2018-12-29T19:22:19.908Z,46.97
2018-12-29T19:24:48.574Z,39.07
2018-12-29T19:27:17.128Z,39.60
2018-12-29T19:29:45.875Z,39.37
2018-12-29T19:32:14.891Z,37.43
2018-12-29T19:34:43.640Z,39.77
2018-12-29T19:37:12.861Z,40.97
2018-12-29T19:39:41.731Z,39.30
2018-12-29T19:42:10.365Z,41.77
2018-12-29T19:44:39.085Z,44.30
2018-12-29T19:47:07.797Z,45.90
2018-12-29T19:49:37.018Z,44.27
2018-12-29T19:52:05.595Z,44.00
2018-12-29T19:54:34.123Z,45.60
2018-12-29T19:57:03.078Z,47.00
2018-12-29T19:59:31.892Z,45.83
2018-12-29T20:02:00.979Z,47.63
2018-12-29T20:04:29.585Z,45.20
2018-12-29T20:06:58.599Z,54.03
2018-12-29T20:09:27.243Z,50.97
2018-12-29T20:11:56.141Z,52.97
2018-12-29T20:14:24.690Z,49.90
2018-12-29T20:16:53.261Z,50.67
2018-12-29T20:19:21.783Z,111.87
2018-12-29T20:21:50.401Z,178.67
2018-12-29T20:24:18.931Z,199.73
2018-12-29T20:26:47.424Z,136.20
2018-12-29T20:29:15.937Z,87.90
2018-12-29T20:31:44.678Z,116.37
2018-12-29T20:34:13.210Z,80.67
2018-12-29T20:36:41.724Z,132.50
2018-12-29T20:39:10.346Z,104.23
2018-12-29T20:41:38.887Z,75.73
2018-12-29T20:44:07.522Z,72.67
2018-12-29T20:46:36.177Z,49.90
2018-12-29T20:49:04.780Z,227.67
2018-12-29T20:51:33.694Z,273.50
2018-12-29T20:54:02.450Z,58.17
2018-12-29T20:56:30.918Z,75.07
2018-12-29T20:58:59.375Z,54.10
2018-12-29T21:01:27.948Z,25.73
2018-12-29T21:03:56.464Z,26.27
2018-12-29T21:06:24.968Z,21.27
2018-12-29T21:08:53.471Z,16.50
2018-12-29T21:11:22.202Z,13.17
2018-12-29T21:13:50.765Z,18.47
2018-12-29T21:16:19.596Z,13.60
2018-12-29T21:18:48.762Z,16.37
2018-12-29T21:21:17.484Z,15.37
2018-12-29T21:23:46.384Z,13.10
2018-12-29T21:26:15.276Z,13.37
2018-12-29T21:28:44.030Z,12.63
2018-12-29T21:31:12.673Z,14.37
2018-12-29T21:33:41.124Z,13.03
2018-12-29T21:36:09.601Z,12.80
2018-12-29T21:38:38.295Z,14.03
2018-12-29T21:41:06.970Z,18.87
2018-12-29T21:43:35.476Z,20.50
2018-12-29T21:46:04.908Z,16.47
2018-12-29T21:48:33.893Z,42.37
2018-12-29T21:51:02.461Z,32.67
2018-12-29T21:53:31.013Z,35.80
2018-12-29T21:55:59.553Z,33.80
2018-12-29T21:58:28.348Z,30.20
2018-12-29T22:00:57.134Z,21.03
2018-12-29T22:03:25.672Z,26.70
2018-12-29T22:05:54.139Z,25.70
2018-12-29T22:08:22.899Z,22.47
2018-12-29T22:10:51.559Z,22.50
2018-12-29T22:13:21.994Z,26.53
2018-12-29T22:15:50.670Z,32.40
2018-12-29T22:18:19.404Z,30.07
2018-12-29T22:20:47.859Z,27.53
2018-12-29T22:23:16.407Z,29.17
2018-12-29T22:25:48.346Z,30.83
2018-12-29T22:28:15.062Z,25.70
2018-12-29T22:30:43.566Z,29.03
2018-12-29T22:33:12.011Z,26.30
2018-12-29T22:35:40.441Z,28.77
2018-12-29T22:38:08.999Z,32.63
2018-12-29T22:40:37.890Z,37.63
2018-12-29T22:43:06.333Z,31.80
2018-12-29T22:45:34.938Z,33.70
2018-12-29T22:48:03.470Z,30.73
2018-12-29T22:50:32.495Z,38.63
2018-12-29T22:53:01.413Z,40.80
2018-12-29T22:55:29.883Z,29.63
2018-12-29T22:57:58.419Z,23.23
2018-12-29T23:00:28.875Z,24.83
2018-12-29T23:02:57.376Z,21.70
2018-12-29T23:05:26.197Z,23.43
2018-12-29T23:07:54.910Z,22.80
2018-12-29T23:10:23.745Z,24.30
2018-12-29T23:12:52.571Z,27.57
2018-12-29T23:15:21.160Z,23.30
2018-12-29T23:17:49.731Z,25.37
2018-12-29T23:20:18.326Z,31.53
2018-12-29T23:22:47.103Z,31.53
2018-12-29T23:25:16.708Z,33.40
2018-12-29T23:27:45.668Z,34.83
2018-12-29T23:30:14.536Z,28.77
2018-12-29T23:32:44.277Z,31.60
2018-12-29T23:35:12.827Z,27.00
2018-12-29T23:37:42.679Z,35.63
2018-12-29T23:40:11.611Z,35.97
2018-12-29T23:42:40.411Z,34.33
2018-12-29T23:45:09.402Z,37.53
2018-12-29T23:47:38.797Z,28.93
2018-12-29T23:50:08.562Z,33.17
2018-12-29T23:52:37.779Z,33.17
2018-12-29T23:55:07.352Z,34.97
2018-12-29T23:57:36.596Z,29.33
